sensor_id;sensor_type;location;lat;lon;timestamp;P1;durP1;ratioP1;P2;durP2;ratioP2
18290;SDS011;9271;48.590;8.866;2023-03-23T00:00:46;4.00;;;3.10;;
18290;SDS011;9271;48.590;8.866;2023-03-23T00:03:14;4.57;;;3.10;;
18290;SDS011;9271;48.590;8.866;2023-03-23T00:05:42;4.27;;;2.53;;
18290;SDS011;9271;48.590;8.866;2023-03-23T00:08:14;4.43;;;2.70;;
18290;SDS011;9271;48.590;8.866;2023-03-23T00:10:41;4.47;;;2.63;;
18290;SDS011;9271;48.590;8.866;2023-03-23T00:13:08;3.20;;;2.57;;
18290;SDS011;9271;48.590;8.866;2023-03-23T00:15:36;4.27;;;3.20;;
18290;SDS011;9271;48.590;8.866;2023-03-23T00:18:06;3.50;;;2.30;;
18290;SDS011;9271;48.590;8.866;2023-03-23T00:20:34;2.67;;;2.30;;
18290;SDS011;9271;48.590;8.866;2023-03-23T00:23:06;2.20;;;2.00;;
18290;SDS011;9271;48.590;8.866;2023-03-23T00:25:33;2.40;;;2.20;;
18290;SDS011;9271;48.590;8.866;2023-03-23T00:28:00;2.07;;;1.87;;
18290;SDS011;9271;48.590;8.866;2023-03-23T00:30:27;2.10;;;2.00;;
18290;SDS011;9271;48.590;8.866;2023-03-23T00:32:54;2.00;;;1.90;;
18290;SDS011;9271;48.590;8.866;2023-03-23T00:35:22;5.10;;;2.27;;
18290;SDS011;9271;48.590;8.866;2023-03-23T00:37:50;2.50;;;1.90;;
18290;SDS011;9271;48.590;8.866;2023-03-23T00:40:17;2.80;;;2.00;;
18290;SDS011;9271;48.590;8.866;2023-03-23T00:42:43;2.10;;;1.90;;
18290;SDS011;9271;48.590;8.866;2023-03-23T00:45:11;3.13;;;2.07;;
18290;SDS011;9271;48.590;8.866;2023-03-23T00:47:37;2.13;;;1.97;;
18290;SDS011;9271;48.590;8.866;2023-03-23T00:50:07;3.33;;;2.10;;
18290;SDS011;9271;48.590;8.866;2023-03-23T00:52:34;2.20;;;2.00;;
18290;SDS011;9271;48.590;8.866;2023-03-23T00:55:02;4.07;;;1.97;;
18290;SDS011;9271;48.590;8.866;2023-03-23T00:57:29;2.60;;;2.40;;
18290;SDS011;9271;48.590;8.866;2023-03-23T00:59:56;4.40;;;2.77;;
18290;SDS011;9271;48.590;8.866;2023-03-23T01:02:23;3.00;;;2.00;;
18290;SDS011;9271;48.590;8.866;2023-03-23T01:04:50;3.80;;;2.53;;
18290;SDS011;9271;48.590;8.866;2023-03-23T01:07:18;3.50;;;2.17;;
18290;SDS011;9271;48.590;8.866;2023-03-23T01:09:45;3.77;;;2.20;;
18290;SDS011;9271;48.590;8.866;2023-03-23T01:12:14;2.50;;;2.30;;
18290;SDS011;9271;48.590;8.866;2023-03-23T01:14:41;2.87;;;2.60;;
18290;SDS011;9271;48.590;8.866;2023-03-23T01:17:08;4.47;;;2.60;;
18290;SDS011;9271;48.590;8.866;2023-03-23T01:19:34;3.93;;;3.10;;
18290;SDS011;9271;48.590;8.866;2023-03-23T01:22:02;4.40;;;2.70;;
18290;SDS011;9271;48.590;8.866;2023-03-23T01:24:29;2.77;;;2.57;;
18290;SDS011;9271;48.590;8.866;2023-03-23T01:26:57;3.47;;;2.80;;
18290;SDS011;9271;48.590;8.866;2023-03-23T01:29:28;4.03;;;2.70;;
18290;SDS011;9271;48.590;8.866;2023-03-23T01:31:54;2.80;;;2.30;;
18290;SDS011;9271;48.590;8.866;2023-03-23T01:34:21;3.00;;;2.80;;
18290;SDS011;9271;48.590;8.866;2023-03-23T01:36:48;3.07;;;2.53;;
18290;SDS011;9271;48.590;8.866;2023-03-23T01:39:14;4.90;;;2.30;;
18290;SDS011;9271;48.590;8.866;2023-03-23T01:41:41;2.80;;;2.37;;
18290;SDS011;9271;48.590;8.866;2023-03-23T01:44:59;2.67;;;2.23;;
18290;SDS011;9271;48.590;8.866;2023-03-23T01:47:14;2.57;;;2.10;;
18290;SDS011;9271;48.590;8.866;2023-03-23T01:49:42;2.77;;;2.23;;
18290;SDS011;9271;48.590;8.866;2023-03-23T01:52:13;2.40;;;1.80;;
18290;SDS011;9271;48.590;8.866;2023-03-23T01:54:42;3.57;;;2.30;;
18290;SDS011;9271;48.590;8.866;2023-03-23T01:57:11;2.30;;;2.20;;
18290;SDS011;9271;48.590;8.866;2023-03-23T01:59:40;2.20;;;2.00;;
18290;SDS011;9271;48.590;8.866;2023-03-23T02:02:10;2.93;;;2.30;;
18290;SDS011;9271;48.590;8.866;2023-03-23T02:04:38;3.03;;;2.20;;
18290;SDS011;9271;48.590;8.866;2023-03-23T02:07:06;3.07;;;2.30;;
18290;SDS011;9271;48.590;8.866;2023-03-23T02:09:33;3.47;;;2.03;;
18290;SDS011;9271;48.590;8.866;2023-03-23T02:12:00;4.50;;;2.40;;
18290;SDS011;9271;48.590;8.866;2023-03-23T02:14:27;2.30;;;2.20;;
18290;SDS011;9271;48.590;8.866;2023-03-23T02:16:57;2.63;;;2.03;;
18290;SDS011;9271;48.590;8.866;2023-03-23T02:19:37;2.87;;;2.27;;
18290;SDS011;9271;48.590;8.866;2023-03-23T02:22:25;2.20;;;2.00;;
18290;SDS011;9271;48.590;8.866;2023-03-23T02:25:13;4.37;;;2.27;;
18290;SDS011;9271;48.590;8.866;2023-03-23T02:28:19;2.67;;;2.07;;
18290;SDS011;9271;48.590;8.866;2023-03-23T02:31:05;2.80;;;2.37;;
18290;SDS011;9271;48.590;8.866;2023-03-23T02:33:49;3.00;;;2.17;;
18290;SDS011;9271;48.590;8.866;2023-03-23T02:36:22;2.27;;;2.07;;
18290;SDS011;9271;48.590;8.866;2023-03-23T02:38:55;3.47;;;2.53;;
18290;SDS011;9271;48.590;8.866;2023-03-23T02:41:27;3.20;;;2.20;;
18290;SDS011;9271;48.590;8.866;2023-03-23T02:43:56;3.30;;;2.27;;
18290;SDS011;9271;48.590;8.866;2023-03-23T02:46:24;2.10;;;2.00;;
18290;SDS011;9271;48.590;8.866;2023-03-23T02:48:54;2.17;;;1.97;;
18290;SDS011;9271;48.590;8.866;2023-03-23T02:51:23;2.70;;;2.20;;
18290;SDS011;9271;48.590;8.866;2023-03-23T02:53:50;2.60;;;2.10;;
18290;SDS011;9271;48.590;8.866;2023-03-23T02:56:19;2.20;;;2.03;;
18290;SDS011;9271;48.590;8.866;2023-03-23T02:58:49;2.23;;;2.00;;
18290;SDS011;9271;48.590;8.866;2023-03-23T03:01:45;2.43;;;2.17;;
18290;SDS011;9271;48.590;8.866;2023-03-23T03:04:23;2.63;;;2.10;;
18290;SDS011;9271;48.590;8.866;2023-03-23T03:06:55;2.27;;;2.07;;
18290;SDS011;9271;48.590;8.866;2023-03-23T03:09:42;2.43;;;2.23;;
18290;SDS011;9271;48.590;8.866;2023-03-23T03:12:14;2.10;;;2.00;;
18290;SDS011;9271;48.590;8.866;2023-03-23T03:14:47;4.63;;;2.37;;
18290;SDS011;9271;48.590;8.866;2023-03-23T03:17:19;2.57;;;2.37;;
18290;SDS011;9271;48.590;8.866;2023-03-23T03:19:50;2.20;;;2.00;;
18290;SDS011;9271;48.590;8.866;2023-03-23T03:22:22;2.80;;;1.90;;
18290;SDS011;9271;48.590;8.866;2023-03-23T03:24:53;2.63;;;2.00;;
18290;SDS011;9271;48.590;8.866;2023-03-23T03:27:22;3.73;;;2.00;;
18290;SDS011;9271;48.590;8.866;2023-03-23T03:29:51;2.00;;;1.80;;
18290;SDS011;9271;48.590;8.866;2023-03-23T03:32:22;2.30;;;1.83;;
18290;SDS011;9271;48.590;8.866;2023-03-23T03:34:57;1.83;;;1.70;;
18290;SDS011;9271;48.590;8.866;2023-03-23T03:37:25;2.20;;;1.97;;
18290;SDS011;9271;48.590;8.866;2023-03-23T03:39:52;2.47;;;2.00;;
18290;SDS011;9271;48.590;8.866;2023-03-23T03:42:19;2.00;;;1.70;;
18290;SDS011;9271;48.590;8.866;2023-03-23T03:44:46;2.63;;;2.10;;
18290;SDS011;9271;48.590;8.866;2023-03-23T03:47:12;3.87;;;1.90;;
18290;SDS011;9271;48.590;8.866;2023-03-23T03:49:39;2.30;;;2.10;;
18290;SDS011;9271;48.590;8.866;2023-03-23T03:52:07;2.00;;;1.80;;
18290;SDS011;9271;48.590;8.866;2023-03-23T03:54:34;2.30;;;2.10;;
18290;SDS011;9271;48.590;8.866;2023-03-23T03:57:01;2.60;;;2.40;;
18290;SDS011;9271;48.590;8.866;2023-03-23T03:59:28;2.20;;;2.00;;
18290;SDS011;9271;48.590;8.866;2023-03-23T04:01:55;3.67;;;2.00;;
18290;SDS011;9271;48.590;8.866;2023-03-23T04:04:22;2.27;;;2.13;;
18290;SDS011;9271;48.590;8.866;2023-03-23T04:06:49;2.60;;;2.40;;
18290;SDS011;9271;48.590;8.866;2023-03-23T04:09:17;2.30;;;2.10;;
18290;SDS011;9271;48.590;8.866;2023-03-23T04:11:44;2.43;;;2.10;;
18290;SDS011;9271;48.590;8.866;2023-03-23T04:14:11;2.27;;;2.10;;
18290;SDS011;9271;48.590;8.866;2023-03-23T04:16:37;2.37;;;2.17;;
18290;SDS011;9271;48.590;8.866;2023-03-23T04:19:05;2.63;;;2.30;;
18290;SDS011;9271;48.590;8.866;2023-03-23T04:21:32;2.40;;;2.00;;
18290;SDS011;9271;48.590;8.866;2023-03-23T04:23:59;2.00;;;1.90;;
18290;SDS011;9271;48.590;8.866;2023-03-23T04:26:29;2.30;;;2.10;;
18290;SDS011;9271;48.590;8.866;2023-03-23T04:28:56;2.77;;;1.93;;
18290;SDS011;9271;48.590;8.866;2023-03-23T04:31:23;3.13;;;2.20;;
18290;SDS011;9271;48.590;8.866;2023-03-23T04:33:50;2.70;;;2.10;;
18290;SDS011;9271;48.590;8.866;2023-03-23T04:36:18;3.83;;;1.70;;
18290;SDS011;9271;48.590;8.866;2023-03-23T04:38:47;2.60;;;1.93;;
18290;SDS011;9271;48.590;8.866;2023-03-23T04:41:15;2.00;;;1.87;;
18290;SDS011;9271;48.590;8.866;2023-03-23T04:43:43;1.73;;;1.63;;
18290;SDS011;9271;48.590;8.866;2023-03-23T04:46:10;1.90;;;1.70;;
18290;SDS011;9271;48.590;8.866;2023-03-23T04:48:37;1.60;;;1.50;;
18290;SDS011;9271;48.590;8.866;2023-03-23T04:51:04;1.77;;;1.60;;
18290;SDS011;9271;48.590;8.866;2023-03-23T04:53:31;1.70;;;1.60;;
18290;SDS011;9271;48.590;8.866;2023-03-23T04:55:58;1.80;;;1.70;;
18290;SDS011;9271;48.590;8.866;2023-03-23T04:58:26;1.70;;;1.60;;
18290;SDS011;9271;48.590;8.866;2023-03-23T05:00:55;1.93;;;1.80;;
18290;SDS011;9271;48.590;8.866;2023-03-23T05:03:22;1.60;;;1.50;;
18290;SDS011;9271;48.590;8.866;2023-03-23T05:05:49;1.50;;;1.40;;
18290;SDS011;9271;48.590;8.866;2023-03-23T05:08:17;1.93;;;1.83;;
18290;SDS011;9271;48.590;8.866;2023-03-23T05:10:49;2.03;;;1.77;;
18290;SDS011;9271;48.590;8.866;2023-03-23T05:13:16;3.57;;;1.80;;
18290;SDS011;9271;48.590;8.866;2023-03-23T05:15:42;2.10;;;1.90;;
18290;SDS011;9271;48.590;8.866;2023-03-23T05:18:11;2.00;;;1.83;;
18290;SDS011;9271;48.590;8.866;2023-03-23T05:20:37;4.67;;;2.07;;
18290;SDS011;9271;48.590;8.866;2023-03-23T05:23:04;3.23;;;1.80;;
18290;SDS011;9271;48.590;8.866;2023-03-23T05:25:31;2.93;;;1.67;;
18290;SDS011;9271;48.590;8.866;2023-03-23T05:28:01;1.73;;;1.57;;
18290;SDS011;9271;48.590;8.866;2023-03-23T05:30:28;1.83;;;1.70;;
18290;SDS011;9271;48.590;8.866;2023-03-23T05:32:55;1.60;;;1.50;;
18290;SDS011;9271;48.590;8.866;2023-03-23T05:35:23;3.10;;;1.80;;
18290;SDS011;9271;48.590;8.866;2023-03-23T05:37:49;1.80;;;1.70;;
18290;SDS011;9271;48.590;8.866;2023-03-23T05:40:18;2.87;;;1.70;;
18290;SDS011;9271;48.590;8.866;2023-03-23T05:42:45;1.87;;;1.70;;
18290;SDS011;9271;48.590;8.866;2023-03-23T05:45:14;1.90;;;1.80;;
18290;SDS011;9271;48.590;8.866;2023-03-23T05:47:41;2.00;;;1.80;;
18290;SDS011;9271;48.590;8.866;2023-03-23T05:50:08;1.70;;;1.60;;
18290;SDS011;9271;48.590;8.866;2023-03-23T05:52:37;1.53;;;1.40;;
18290;SDS011;9271;48.590;8.866;2023-03-23T05:55:05;2.70;;;2.10;;
18290;SDS011;9271;48.590;8.866;2023-03-23T05:57:33;3.00;;;2.10;;
18290;SDS011;9271;48.590;8.866;2023-03-23T06:00:00;1.80;;;1.70;;
18290;SDS011;9271;48.590;8.866;2023-03-23T06:02:36;3.23;;;2.10;;
18290;SDS011;9271;48.590;8.866;2023-03-23T06:05:03;2.43;;;1.70;;
18290;SDS011;9271;48.590;8.866;2023-03-23T06:07:30;3.77;;;2.20;;
18290;SDS011;9271;48.590;8.866;2023-03-23T06:09:58;2.87;;;1.70;;
18290;SDS011;9271;48.590;8.866;2023-03-23T06:12:25;2.07;;;1.87;;
18290;SDS011;9271;48.590;8.866;2023-03-23T06:14:52;2.77;;;1.90;;
18290;SDS011;9271;48.590;8.866;2023-03-23T06:17:19;3.97;;;1.80;;
18290;SDS011;9271;48.590;8.866;2023-03-23T06:19:45;3.07;;;1.93;;
18290;SDS011;9271;48.590;8.866;2023-03-23T06:22:13;3.13;;;1.90;;
18290;SDS011;9271;48.590;8.866;2023-03-23T06:24:40;1.80;;;1.70;;
18290;SDS011;9271;48.590;8.866;2023-03-23T06:27:08;3.00;;;2.07;;
18290;SDS011;9271;48.590;8.866;2023-03-23T06:29:35;1.97;;;1.87;;
18290;SDS011;9271;48.590;8.866;2023-03-23T06:32:02;2.70;;;2.00;;
18290;SDS011;9271;48.590;8.866;2023-03-23T06:34:31;2.30;;;2.10;;
18290;SDS011;9271;48.590;8.866;2023-03-23T06:36:58;2.67;;;2.10;;
18290;SDS011;9271;48.590;8.866;2023-03-23T06:39:25;3.53;;;1.90;;
18290;SDS011;9271;48.590;8.866;2023-03-23T06:41:52;2.80;;;1.70;;
18290;SDS011;9271;48.590;8.866;2023-03-23T06:44:20;3.43;;;1.80;;
18290;SDS011;9271;48.590;8.866;2023-03-23T06:46:47;1.93;;;1.80;;
18290;SDS011;9271;48.590;8.866;2023-03-23T06:49:14;2.07;;;1.73;;
18290;SDS011;9271;48.590;8.866;2023-03-23T06:51:40;2.87;;;1.97;;
18290;SDS011;9271;48.590;8.866;2023-03-23T06:54:07;2.23;;;1.90;;
18290;SDS011;9271;48.590;8.866;2023-03-23T06:56:34;2.50;;;1.60;;
18290;SDS011;9271;48.590;8.866;2023-03-23T06:59:00;2.10;;;1.83;;
18290;SDS011;9271;48.590;8.866;2023-03-23T07:01:29;1.97;;;1.67;;
18290;SDS011;9271;48.590;8.866;2023-03-23T07:03:56;1.83;;;1.67;;
18290;SDS011;9271;48.590;8.866;2023-03-23T07:06:23;2.23;;;1.80;;
18290;SDS011;9271;48.590;8.866;2023-03-23T07:08:50;2.10;;;1.80;;
18290;SDS011;9271;48.590;8.866;2023-03-23T07:11:16;1.67;;;1.57;;
18290;SDS011;9271;48.590;8.866;2023-03-23T07:13:43;2.30;;;1.90;;
18290;SDS011;9271;48.590;8.866;2023-03-23T07:16:10;6.90;;;2.10;;
18290;SDS011;9271;48.590;8.866;2023-03-23T07:18:38;3.17;;;1.90;;
18290;SDS011;9271;48.590;8.866;2023-03-23T07:21:05;3.03;;;1.80;;
18290;SDS011;9271;48.590;8.866;2023-03-23T07:23:32;2.07;;;1.80;;
18290;SDS011;9271;48.590;8.866;2023-03-23T07:25:58;5.00;;;2.13;;
18290;SDS011;9271;48.590;8.866;2023-03-23T07:28:25;2.57;;;1.97;;
18290;SDS011;9271;48.590;8.866;2023-03-23T07:30:52;4.87;;;2.00;;
18290;SDS011;9271;48.590;8.866;2023-03-23T07:33:19;4.70;;;2.10;;
18290;SDS011;9271;48.590;8.866;2023-03-23T07:35:47;3.50;;;2.10;;
18290;SDS011;9271;48.590;8.866;2023-03-23T07:38:14;4.17;;;1.93;;
18290;SDS011;9271;48.590;8.866;2023-03-23T07:40:41;3.87;;;2.00;;
18290;SDS011;9271;48.590;8.866;2023-03-23T07:43:08;6.27;;;2.20;;
18290;SDS011;9271;48.590;8.866;2023-03-23T07:45:34;3.33;;;1.87;;
18290;SDS011;9271;48.590;8.866;2023-03-23T07:48:01;2.47;;;2.03;;
18290;SDS011;9271;48.590;8.866;2023-03-23T07:50:27;2.47;;;2.23;;
18290;SDS011;9271;48.590;8.866;2023-03-23T07:52:56;3.77;;;1.90;;
18290;SDS011;9271;48.590;8.866;2023-03-23T07:55:23;2.20;;;2.00;;
18290;SDS011;9271;48.590;8.866;2023-03-23T07:57:52;2.37;;;2.17;;
18290;SDS011;9271;48.590;8.866;2023-03-23T08:00:20;2.00;;;1.80;;
18290;SDS011;9271;48.590;8.866;2023-03-23T08:02:49;4.30;;;2.27;;
18290;SDS011;9271;48.590;8.866;2023-03-23T08:05:17;3.83;;;2.30;;
18290;SDS011;9271;48.590;8.866;2023-03-23T08:07:46;3.43;;;2.17;;
18290;SDS011;9271;48.590;8.866;2023-03-23T08:10:15;2.60;;;2.40;;
18290;SDS011;9271;48.590;8.866;2023-03-23T08:12:43;6.23;;;2.50;;
18290;SDS011;9271;48.590;8.866;2023-03-23T08:15:11;3.00;;;2.17;;
18290;SDS011;9271;48.590;8.866;2023-03-23T08:17:39;2.50;;;2.20;;
18290;SDS011;9271;48.590;8.866;2023-03-23T08:20:07;3.67;;;2.00;;
18290;SDS011;9271;48.590;8.866;2023-03-23T08:22:38;3.00;;;1.80;;
18290;SDS011;9271;48.590;8.866;2023-03-23T08:25:06;2.87;;;1.67;;
18290;SDS011;9271;48.590;8.866;2023-03-23T08:27:36;2.80;;;1.90;;
18290;SDS011;9271;48.590;8.866;2023-03-23T08:30:07;1.97;;;1.80;;
18290;SDS011;9271;48.590;8.866;2023-03-23T08:32:35;4.40;;;2.00;;
18290;SDS011;9271;48.590;8.866;2023-03-23T08:35:02;4.67;;;2.03;;
18290;SDS011;9271;48.590;8.866;2023-03-23T08:37:29;3.57;;;2.10;;
18290;SDS011;9271;48.590;8.866;2023-03-23T08:39:56;2.47;;;1.70;;
18290;SDS011;9271;48.590;8.866;2023-03-23T08:42:23;3.40;;;1.90;;
18290;SDS011;9271;48.590;8.866;2023-03-23T08:44:51;2.00;;;1.80;;
18290;SDS011;9271;48.590;8.866;2023-03-23T08:47:18;1.63;;;1.53;;
18290;SDS011;9271;48.590;8.866;2023-03-23T08:49:45;1.93;;;1.83;;
18290;SDS011;9271;48.590;8.866;2023-03-23T08:52:12;2.10;;;1.90;;
18290;SDS011;9271;48.590;8.866;2023-03-23T08:54:40;1.60;;;1.50;;
18290;SDS011;9271;48.590;8.866;2023-03-23T08:57:11;2.87;;;1.50;;
18290;SDS011;9271;48.590;8.866;2023-03-23T08:59:39;1.97;;;1.70;;
18290;SDS011;9271;48.590;8.866;2023-03-23T09:02:08;3.67;;;1.73;;
18290;SDS011;9271;48.590;8.866;2023-03-23T09:04:36;2.10;;;1.57;;
18290;SDS011;9271;48.590;8.866;2023-03-23T09:07:04;4.43;;;1.80;;
18290;SDS011;9271;48.590;8.866;2023-03-23T09:09:30;3.23;;;2.30;;
18290;SDS011;9271;48.590;8.866;2023-03-23T09:11:59;2.30;;;2.10;;
18290;SDS011;9271;48.590;8.866;2023-03-23T09:14:26;1.93;;;1.83;;
18290;SDS011;9271;48.590;8.866;2023-03-23T09:16:52;2.03;;;1.83;;
18290;SDS011;9271;48.590;8.866;2023-03-23T09:19:20;5.53;;;1.90;;
18290;SDS011;9271;48.590;8.866;2023-03-23T09:21:47;2.00;;;1.80;;
18290;SDS011;9271;48.590;8.866;2023-03-23T09:24:14;2.20;;;2.00;;
18290;SDS011;9271;48.590;8.866;2023-03-23T09:26:41;2.13;;;1.90;;
18290;SDS011;9271;48.590;8.866;2023-03-23T09:29:08;3.50;;;2.17;;
18290;SDS011;9271;48.590;8.866;2023-03-23T09:31:36;2.17;;;1.70;;
18290;SDS011;9271;48.590;8.866;2023-03-23T09:34:04;2.40;;;2.10;;
18290;SDS011;9271;48.590;8.866;2023-03-23T09:36:35;2.80;;;1.80;;
18290;SDS011;9271;48.590;8.866;2023-03-23T09:39:03;2.20;;;2.00;;
18290;SDS011;9271;48.590;8.866;2023-03-23T09:41:43;2.10;;;2.00;;
18290;SDS011;9271;48.590;8.866;2023-03-23T09:44:22;3.03;;;2.37;;
18290;SDS011;9271;48.590;8.866;2023-03-23T09:46:58;2.70;;;1.97;;
18290;SDS011;9271;48.590;8.866;2023-03-23T09:49:32;3.03;;;1.90;;
18290;SDS011;9271;48.590;8.866;2023-03-23T09:52:05;2.10;;;2.00;;
18290;SDS011;9271;48.590;8.866;2023-03-23T09:54:38;3.20;;;1.90;;
18290;SDS011;9271;48.590;8.866;2023-03-23T09:57:11;4.57;;;1.93;;
18290;SDS011;9271;48.590;8.866;2023-03-23T09:59:43;3.03;;;1.60;;
18290;SDS011;9271;48.590;8.866;2023-03-23T10:02:14;2.70;;;1.80;;
18290;SDS011;9271;48.590;8.866;2023-03-23T10:04:43;2.20;;;1.80;;
18290;SDS011;9271;48.590;8.866;2023-03-23T10:07:13;3.23;;;1.80;;
18290;SDS011;9271;48.590;8.866;2023-03-23T10:09:42;2.87;;;1.80;;
18290;SDS011;9271;48.590;8.866;2023-03-23T10:12:14;2.73;;;1.70;;
18290;SDS011;9271;48.590;8.866;2023-03-23T10:14:50;2.90;;;1.77;;
18290;SDS011;9271;48.590;8.866;2023-03-23T10:17:25;2.10;;;1.90;;
18290;SDS011;9271;48.590;8.866;2023-03-23T10:19:56;1.60;;;1.50;;
18290;SDS011;9271;48.590;8.866;2023-03-23T10:22:35;2.20;;;2.00;;
18290;SDS011;9271;48.590;8.866;2023-03-23T10:25:14;2.23;;;1.83;;
18290;SDS011;9271;48.590;8.866;2023-03-23T10:27:44;2.73;;;1.80;;
18290;SDS011;9271;48.590;8.866;2023-03-23T10:30:15;1.83;;;1.73;;
18290;SDS011;9271;48.590;8.866;2023-03-23T10:32:47;2.20;;;2.00;;
18290;SDS011;9271;48.590;8.866;2023-03-23T10:35:17;3.90;;;1.90;;
18290;SDS011;9271;48.590;8.866;2023-03-23T10:37:49;2.17;;;1.97;;
18290;SDS011;9271;48.590;8.866;2023-03-23T10:40:22;4.83;;;1.50;;
18290;SDS011;9271;48.590;8.866;2023-03-23T10:42:54;4.03;;;2.03;;
18290;SDS011;9271;48.590;8.866;2023-03-23T10:45:22;2.37;;;2.17;;
18290;SDS011;9271;48.590;8.866;2023-03-23T10:47:52;2.13;;;2.03;;
18290;SDS011;9271;48.590;8.866;2023-03-23T10:50:26;2.47;;;1.80;;
18290;SDS011;9271;48.590;8.866;2023-03-23T10:52:57;2.23;;;1.90;;
18290;SDS011;9271;48.590;8.866;2023-03-23T10:55:34;2.10;;;1.90;;
18290;SDS011;9271;48.590;8.866;2023-03-23T10:58:03;2.97;;;2.30;;
18290;SDS011;9271;48.590;8.866;2023-03-23T11:00:32;3.30;;;1.80;;
18290;SDS011;9271;48.590;8.866;2023-03-23T11:03:06;1.80;;;1.70;;
18290;SDS011;9271;48.590;8.866;2023-03-23T11:05:49;1.90;;;1.70;;
18290;SDS011;9271;48.590;8.866;2023-03-23T11:08:21;2.10;;;1.90;;
18290;SDS011;9271;48.590;8.866;2023-03-23T11:10:51;3.60;;;2.00;;
18290;SDS011;9271;48.590;8.866;2023-03-23T11:13:19;1.80;;;1.70;;
18290;SDS011;9271;48.590;8.866;2023-03-23T11:15:49;3.37;;;1.90;;
18290;SDS011;9271;48.590;8.866;2023-03-23T11:18:18;2.10;;;1.90;;
18290;SDS011;9271;48.590;8.866;2023-03-23T11:20:48;2.50;;;1.57;;
18290;SDS011;9271;48.590;8.866;2023-03-23T11:23:20;2.00;;;1.80;;
18290;SDS011;9271;48.590;8.866;2023-03-23T11:25:50;1.80;;;1.70;;
18290;SDS011;9271;48.590;8.866;2023-03-23T11:28:19;1.90;;;1.80;;
18290;SDS011;9271;48.590;8.866;2023-03-23T11:30:47;1.83;;;1.60;;
18290;SDS011;9271;48.590;8.866;2023-03-23T11:33:14;2.97;;;2.20;;
18290;SDS011;9271;48.590;8.866;2023-03-23T11:35:43;2.47;;;1.90;;
18290;SDS011;9271;48.590;8.866;2023-03-23T11:38:15;1.70;;;1.60;;
18290;SDS011;9271;48.590;8.866;2023-03-23T11:40:48;2.40;;;1.60;;
18290;SDS011;9271;48.590;8.866;2023-03-23T11:43:18;1.77;;;1.67;;
18290;SDS011;9271;48.590;8.866;2023-03-23T11:45:47;3.03;;;1.73;;
18290;SDS011;9271;48.590;8.866;2023-03-23T11:48:21;1.97;;;1.80;;
18290;SDS011;9271;48.590;8.866;2023-03-23T11:50:53;1.93;;;1.73;;
18290;SDS011;9271;48.590;8.866;2023-03-23T11:53:27;3.40;;;2.10;;
18290;SDS011;9271;48.590;8.866;2023-03-23T11:56:04;2.30;;;2.10;;
18290;SDS011;9271;48.590;8.866;2023-03-23T11:58:37;2.60;;;1.60;;
18290;SDS011;9271;48.590;8.866;2023-03-23T12:01:05;3.60;;;2.40;;
18290;SDS011;9271;48.590;8.866;2023-03-23T12:03:43;2.27;;;1.70;;
18290;SDS011;9271;48.590;8.866;2023-03-23T12:06:22;1.80;;;1.70;;
18290;SDS011;9271;48.590;8.866;2023-03-23T12:08:59;2.27;;;1.77;;
18290;SDS011;9271;48.590;8.866;2023-03-23T12:11:37;3.67;;;1.87;;
18290;SDS011;9271;48.590;8.866;2023-03-23T12:14:13;4.00;;;1.73;;
18290;SDS011;9271;48.590;8.866;2023-03-23T12:16:57;1.70;;;1.60;;
18290;SDS011;9271;48.590;8.866;2023-03-23T12:19:33;3.27;;;1.77;;
18290;SDS011;9271;48.590;8.866;2023-03-23T12:22:08;2.00;;;1.70;;
18290;SDS011;9271;48.590;8.866;2023-03-23T12:24:46;2.60;;;1.73;;
18290;SDS011;9271;48.590;8.866;2023-03-23T12:27:25;2.23;;;1.70;;
18290;SDS011;9271;48.590;8.866;2023-03-23T12:30:12;2.53;;;1.70;;
18290;SDS011;9271;48.590;8.866;2023-03-23T12:32:50;1.63;;;1.53;;
18290;SDS011;9271;48.590;8.866;2023-03-23T12:35:32;2.30;;;1.73;;
18290;SDS011;9271;48.590;8.866;2023-03-23T12:38:08;2.23;;;1.70;;
18290;SDS011;9271;48.590;8.866;2023-03-23T12:40:46;2.10;;;1.60;;
18290;SDS011;9271;48.590;8.866;2023-03-23T12:43:26;5.10;;;1.97;;
18290;SDS011;9271;48.590;8.866;2023-03-23T12:46:02;1.73;;;1.63;;
18290;SDS011;9271;48.590;8.866;2023-03-23T12:48:39;1.70;;;1.60;;
18290;SDS011;9271;48.590;8.866;2023-03-23T12:51:12;2.10;;;1.90;;
18290;SDS011;9271;48.590;8.866;2023-03-23T12:53:46;2.13;;;1.93;;
18290;SDS011;9271;48.590;8.866;2023-03-23T12:56:21;5.67;;;1.80;;
18290;SDS011;9271;48.590;8.866;2023-03-23T12:58:55;2.50;;;1.87;;
18290;SDS011;9271;48.590;8.866;2023-03-23T13:01:28;1.80;;;1.70;;
18290;SDS011;9271;48.590;8.866;2023-03-23T13:03:59;1.97;;;1.70;;
18290;SDS011;9271;48.590;8.866;2023-03-23T13:06:29;1.93;;;1.80;;
18290;SDS011;9271;48.590;8.866;2023-03-23T13:09:01;4.40;;;1.80;;
18290;SDS011;9271;48.590;8.866;2023-03-23T13:11:32;3.80;;;1.80;;
18290;SDS011;9271;48.590;8.866;2023-03-23T13:14:06;1.90;;;1.73;;
18290;SDS011;9271;48.590;8.866;2023-03-23T13:16:43;1.90;;;1.80;;
18290;SDS011;9271;48.590;8.866;2023-03-23T13:19:18;3.13;;;2.13;;
18290;SDS011;9271;48.590;8.866;2023-03-23T13:21:52;2.07;;;1.93;;
18290;SDS011;9271;48.590;8.866;2023-03-23T13:24:25;2.20;;;1.90;;
18290;SDS011;9271;48.590;8.866;2023-03-23T13:26:55;2.27;;;1.80;;
18290;SDS011;9271;48.590;8.866;2023-03-23T13:29:24;3.77;;;1.83;;
18290;SDS011;9271;48.590;8.866;2023-03-23T13:31:52;2.57;;;1.90;;
18290;SDS011;9271;48.590;8.866;2023-03-23T13:34:31;2.60;;;1.90;;
18290;SDS011;9271;48.590;8.866;2023-03-23T13:36:59;2.40;;;1.77;;
18290;SDS011;9271;48.590;8.866;2023-03-23T13:39:29;2.80;;;2.07;;
18290;SDS011;9271;48.590;8.866;2023-03-23T13:41:59;2.27;;;1.90;;
18290;SDS011;9271;48.590;8.866;2023-03-23T13:44:41;3.40;;;2.10;;
18290;SDS011;9271;48.590;8.866;2023-03-23T13:47:16;2.10;;;1.77;;
18290;SDS011;9271;48.590;8.866;2023-03-23T13:49:49;1.93;;;1.83;;
18290;SDS011;9271;48.590;8.866;2023-03-23T13:52:21;2.33;;;2.10;;
18290;SDS011;9271;48.590;8.866;2023-03-23T13:54:50;3.07;;;1.97;;
18290;SDS011;9271;48.590;8.866;2023-03-23T13:57:20;2.20;;;2.00;;
18290;SDS011;9271;48.590;8.866;2023-03-23T13:59:58;2.37;;;1.87;;
18290;SDS011;9271;48.590;8.866;2023-03-23T14:02:37;3.93;;;2.23;;
18290;SDS011;9271;48.590;8.866;2023-03-23T14:05:10;2.43;;;1.80;;
18290;SDS011;9271;48.590;8.866;2023-03-23T14:07:56;2.23;;;1.90;;
18290;SDS011;9271;48.590;8.866;2023-03-23T14:10:31;1.87;;;1.77;;
18290;SDS011;9271;48.590;8.866;2023-03-23T14:13:17;2.30;;;2.10;;
18290;SDS011;9271;48.590;8.866;2023-03-23T14:15:55;3.73;;;2.10;;
18290;SDS011;9271;48.590;8.866;2023-03-23T14:18:26;2.23;;;2.00;;
18290;SDS011;9271;48.590;8.866;2023-03-23T14:20:57;4.43;;;2.27;;
18290;SDS011;9271;48.590;8.866;2023-03-23T14:23:26;2.20;;;2.00;;
18290;SDS011;9271;48.590;8.866;2023-03-23T14:25:56;5.83;;;2.00;;
18290;SDS011;9271;48.590;8.866;2023-03-23T14:28:30;1.93;;;1.83;;
18290;SDS011;9271;48.590;8.866;2023-03-23T14:30:59;1.70;;;1.60;;
18290;SDS011;9271;48.590;8.866;2023-03-23T14:33:26;3.07;;;2.03;;
18290;SDS011;9271;48.590;8.866;2023-03-23T14:35:53;2.10;;;2.00;;
18290;SDS011;9271;48.590;8.866;2023-03-23T14:38:23;3.43;;;1.90;;
18290;SDS011;9271;48.590;8.866;2023-03-23T14:40:53;2.07;;;1.97;;
18290;SDS011;9271;48.590;8.866;2023-03-23T14:43:25;2.10;;;1.90;;
18290;SDS011;9271;48.590;8.866;2023-03-23T14:45:52;1.90;;;1.70;;
18290;SDS011;9271;48.590;8.866;2023-03-23T14:48:23;2.20;;;2.00;;
18290;SDS011;9271;48.590;8.866;2023-03-23T14:50:52;2.03;;;1.90;;
18290;SDS011;9271;48.590;8.866;2023-03-23T14:53:23;2.30;;;2.10;;
18290;SDS011;9271;48.590;8.866;2023-03-23T14:55:51;3.70;;;2.10;;
18290;SDS011;9271;48.590;8.866;2023-03-23T14:58:21;2.40;;;2.20;;
18290;SDS011;9271;48.590;8.866;2023-03-23T15:00:50;2.90;;;2.33;;
18290;SDS011;9271;48.590;8.866;2023-03-23T15:03:21;2.37;;;1.83;;
18290;SDS011;9271;48.590;8.866;2023-03-23T15:05:51;2.97;;;1.80;;
18290;SDS011;9271;48.590;8.866;2023-03-23T15:08:22;2.30;;;1.90;;
18290;SDS011;9271;48.590;8.866;2023-03-23T15:10:55;3.00;;;1.63;;
18290;SDS011;9271;48.590;8.866;2023-03-23T15:13:27;2.07;;;1.97;;
18290;SDS011;9271;48.590;8.866;2023-03-23T15:16:00;2.43;;;2.23;;
18290;SDS011;9271;48.590;8.866;2023-03-23T15:18:33;2.27;;;2.07;;